createdAt,value
2023-02-11T00:00:50.170Z,16.9
2023-02-11T00:15:32.707Z,16.9
2023-02-11T00:30:45.630Z,16.9
2023-02-11T00:45:25.198Z,16.8
2023-02-11T01:00:44.476Z,16.8
2023-02-11T01:15:25.722Z,16.7
2023-02-11T01:30:45.713Z,16.7
2023-02-11T01:45:24.929Z,16.7
2023-02-11T02:00:44.986Z,16.6
2023-02-11T02:15:25.108Z,16.6
2023-02-11T02:30:45.395Z,16.5
2023-02-11T02:45:25.015Z,16.5
2023-02-11T03:00:45.864Z,16.5
2023-02-11T03:15:25.021Z,16.4
2023-02-11T03:30:45.156Z,16.5
2023-02-11T03:45:45.368Z,16.4
2023-02-11T04:00:44.713Z,16.4
2023-02-11T04:15:24.692Z,16.4
2023-02-11T04:30:46.792Z,16.3
2023-02-11T04:45:25.118Z,16.3
2023-02-11T05:01:04.337Z,16.3
2023-02-11T05:15:26.052Z,16.2
2023-02-11T05:30:49.498Z,16.2
2023-02-11T05:45:24.882Z,16.3
2023-02-11T06:00:46.503Z,16.3
2023-02-11T06:15:24.377Z,16.3
2023-02-11T06:30:45.713Z,16.3
2023-02-11T06:45:48.765Z,16.4
2023-02-11T07:01:16.303Z,16.4
2023-02-11T07:15:24.444Z,16.4
2023-02-11T07:31:14.068Z,16.5
2023-02-11T07:45:49.856Z,16.5
2023-02-11T08:01:09.776Z,16.5
2023-02-11T08:15:49.711Z,16.5
2023-02-11T08:31:14.528Z,16.5
2023-02-11T08:45:48.064Z,16.5
2023-02-11T09:01:14.905Z,16.6
2023-02-11T09:15:48.948Z,16.6
2023-02-11T09:31:17.679Z,16.7
2023-02-11T09:45:48.657Z,16.6
2023-02-11T10:01:15.730Z,16.7
2023-02-11T10:15:49.219Z,16.7
2023-02-11T10:31:10.699Z,16.7
2023-02-11T10:45:50.429Z,16.9
2023-02-11T11:01:37.985Z,17
2023-02-11T11:15:50.284Z,16.9
2023-02-11T11:31:10.627Z,17
2023-02-11T11:45:48.274Z,17
2023-02-11T12:01:12.978Z,17.2
2023-02-11T12:15:49.354Z,17.2
2023-02-11T12:31:14.119Z,17.3
2023-02-11T12:45:48.666Z,17.2
2023-02-11T13:01:13.810Z,17.5
2023-02-11T13:15:48.743Z,17.5
2023-02-11T13:31:13.473Z,17.7
2023-02-11T13:45:49.298Z,17.7
2023-02-11T14:01:17.217Z,17.8
2023-02-11T14:15:48.172Z,17.7
2023-02-11T14:31:16.379Z,17.8
2023-02-11T14:45:47.085Z,17.8
2023-02-11T15:01:15.383Z,17.8
2023-02-11T15:15:49.742Z,17.8
2023-02-11T15:31:10.758Z,17.8
2023-02-11T15:45:48.932Z,17.9
2023-02-11T16:01:14.614Z,18
2023-02-11T16:15:48.200Z,18
2023-02-11T16:31:12.718Z,17.9
2023-02-11T16:45:49.512Z,17.9
2023-02-11T17:00:44.833Z,17.9
2023-02-11T17:15:25.193Z,18
2023-02-11T17:30:45.836Z,18.1
2023-02-11T17:45:28.784Z,18.1
2023-02-11T18:00:45.357Z,18.2
2023-02-11T18:15:24.808Z,18.2
2023-02-11T18:30:46.985Z,18.2
2023-02-11T18:45:24.950Z,18.2
2023-02-11T19:00:45.500Z,18.2
2023-02-11T19:15:28.032Z,18.2
2023-02-11T19:30:50.378Z,18.1
2023-02-11T19:45:25.455Z,18.3
2023-02-11T20:00:45.720Z,18.1
2023-02-11T20:15:25.121Z,18
2023-02-11T20:30:45.352Z,18
2023-02-11T20:45:25.015Z,17.9
2023-02-11T21:00:45.559Z,17.9
2023-02-11T21:15:24.975Z,17.9
2023-02-11T21:30:50.939Z,17.8
2023-02-11T21:45:25.424Z,17.8
2023-02-11T22:00:45.357Z,17.7
2023-02-11T22:15:24.372Z,17.6
2023-02-11T22:30:44.881Z,17.6
2023-02-11T22:45:44.522Z,17.5
2023-02-11T23:00:59.127Z,17.5
2023-02-11T23:15:25.222Z,17.4
2023-02-11T23:30:44.743Z,17.3
2023-02-11T23:45:25.122Z,17.2
